Flight Track Log - Related Links

Times and Time Zones

All times are in EDT time to prevent confusion due to time zone crossing. See the SWA508 flight status page for this flight to view local times or setup timezone preferences in your user account.

Time Position Orientation Groundspeed Altitude Reporting Facility
EDT Latitude Longitude Course Direction KTS MPH feet Rate Location/Type
Fri 08:44:48 PM 18.4333 -65.9667 43° Northeast 150 173 1,800  Level San Juan Center
Fri 08:45:49 PM 18.4667 -65.9333 43° Northeast 240 276 3,700 2,182 Climbing San Juan Center
Fri 08:46:49 PM 18.5167 -65.9833 317° Northwest 260 299 6,200 2,550 Climbing San Juan Center
Fri 08:47:49 PM 18.5667 -66.0500 308° West 310 357 8,800 2,529 Climbing San Juan Center
Fri 08:48:50 PM 18.6333 -66.1167 317° Northwest 330 380 11,300 2,331 Climbing San Juan Center
Fri 08:49:50 PM 18.7000 -66.2000 310° West 370 426 13,500 2,600 Climbing San Juan Center
Fri 08:50:50 PM 18.7667 -66.2833 310° West 380 437 16,500 2,628 Climbing San Juan Center
Fri 08:51:51 PM 18.8333 -66.3667 310° West 390 449 18,800 2,100 Climbing San Juan Center
Fri 08:52:50 PM 18.9000 -66.4500 310° West 390 449 20,700 1,850 Climbing San Juan Center
Fri 08:53:51 PM 18.9833 -66.5500 311° West 410 472 22,500 1,736 Climbing San Juan Center
Fri 08:54:51 PM 19.0667 -66.6333 317° Northwest 420 483 24,200 1,900 Climbing San Juan Center
Fri 08:55:51 PM 19.1500 -66.7167 317° Northwest 420 483 26,300 1,835 Climbing San Juan Center
Fri 08:56:52 PM 19.2167 -66.8167 305° West 430 495 27,900 1,339 Climbing San Juan Center
Fri 08:57:52 PM 19.3000 -66.9167 311° West 440 506 29,000 1,150 Climbing San Juan Center
Fri 08:58:52 PM 19.3833 -67.0167 311° West 450 518 30,200 1,100 Climbing San Juan Center
Fri 08:59:52 PM 19.4500 -67.1333 301° West 450 518 31,200 1,388 Climbing San Juan Center
Fri 09:00:53 PM 19.5333 -67.2333 311° West 450 518 33,000 1,438 Climbing San Juan Center
Fri 09:01:53 PM 19.6167 -67.3333 312° West 450 518 34,100 1,100 Climbing San Juan Center
Fri 09:02:53 PM 19.7167 -67.4500 312° West 450 518 35,200 942 Climbing San Juan Center
Fri 09:03:54 PM 19.7833 -67.5500 305° West 440 506 36,000 397 Climbing San Juan Center
Fri 09:04:54 PM 19.8667 -67.6667 307° West 440 506 36,000  Level San Juan Center
Fri 09:05:54 PM 19.9500 -67.7667 312° West 450 518 36,000  Level San Juan Center
Fri 09:06:55 PM 20.0167 -67.8667 305° West 440 506 36,000  Level San Juan Center
Fri 09:07:55 PM 20.1000 -67.9667 312° West 440 506 36,000  Level San Juan Center
Fri 09:08:55 PM 20.1833 -68.0667 312° West 440 506 36,000  Level San Juan Center
Fri 09:09:54 PM 20.2486 -68.1697 304° West 456 525 36,000  Level Miami Center
Fri 09:10:54 PM 20.3228 -68.2686 309° West 461 531 36,000  Level Miami Center
Fri 09:11:54 PM 20.3931 -68.3769 305° West 455 524 36,000  Level Miami Center
Fri 09:12:54 PM 20.4633 -68.4808 306° West 450 518 36,000  Level Miami Center
Fri 09:13:54 PM 20.5378 -68.5889 306° West 450 518 36,000  Level Miami Center
Fri 09:14:54 PM 20.6061 -68.6997 303° West 450 518 36,000  Level Miami Center
Fri 09:15:54 PM 20.6806 -68.8081 306° West 450 518 36,000  Level Miami Center
Fri 09:16:54 PM 20.7525 -68.9144 306° West 450 518 36,000  Level Miami Center
Fri 09:17:54 PM 20.8228 -69.0256 304° West 450 518 36,000  Level Miami Center
Fri 09:18:54 PM 20.9011 -69.1319 308° West 450 518 36,000  Level Miami Center
Fri 09:19:54 PM 20.9711 -69.2433 304° West 450 518 36,000  Level Miami Center
Fri 09:20:54 PM 21.0431 -69.3503 306° West 450 518 36,000  Level Miami Center
Fri 09:21:54 PM 21.1150 -69.4594 305° West 450 518 36,000  Level Miami Center
Fri 09:22:54 PM 21.1889 -69.5686 306° West 450 518 36,000  Level Miami Center
Fri 09:23:54 PM 21.2608 -69.6758 306° West 450 518 36,000  Level Miami Center
Fri 09:24:54 PM 21.3283 -69.7858 303° West 450 518 36,000  Level Miami Center
Fri 09:25:54 PM 21.4042 -69.8953 307° West 450 518 36,000  Level Miami Center
Fri 09:26:54 PM 21.4758 -70.0028 306° West 450 518 36,000  Level Miami Center
Fri 09:27:54 PM 21.5453 -70.1131 304° West 450 518 36,000  Level Miami Center
Fri 09:28:54 PM 21.6147 -70.2208 305° West 450 518 36,000  Level Miami Center
Fri 09:29:54 PM 21.6858 -70.3267 306° West 450 518 36,000  Level Miami Center
Fri 09:30:54 PM 21.7550 -70.4328 305° West 445 512 36,000  Level Miami Center
Fri 09:31:54 PM 21.8264 -70.5408 305° West 445 512 36,000  Level Miami Center
Fri 09:32:54 PM 21.8975 -70.6492 305° West 445 512 36,000  Level Miami Center
Fri 09:33:53 PM 21.9664 -70.7578 304° West 445 512 36,000  Level Miami Center
Fri 09:34:54 PM 22.0353 -70.8642 305° West 445 512 36,000  Level Miami Center
Fri 09:35:54 PM 22.1064 -70.9753 305° West 450 518 36,000  Level Miami Center
Fri 09:36:54 PM 22.1775 -71.0864 305° West 450 518 36,000  Level Miami Center
Fri 09:37:54 PM 22.2442 -71.1978 303° West 450 518 36,000  Level Miami Center
Fri 09:38:54 PM 22.3150 -71.3067 305° West 450 518 36,000  Level Miami Center
Fri 09:39:54 PM 22.3836 -71.4158 304° West 450 518 36,000  Level Miami Center
Fri 09:40:54 PM 22.4564 -71.5253 306° West 450 518 36,000  Level Miami Center
Fri 09:41:54 PM 22.5231 -71.6392 302° West 450 518 36,000  Level Miami Center
Fri 09:42:54 PM 22.5958 -71.7511 305° West 450 518 36,000  Level Miami Center
Fri 09:43:54 PM 22.6642 -71.8608 304° West 450 518 36,000  Level Miami Center
Fri 09:44:54 PM 22.7325 -71.9683 305° West 445 512 36,000  Level Miami Center
Fri 09:45:54 PM 22.8006 -72.0761 304° West 445 512 36,000  Level Miami Center
Fri 09:46:54 PM 22.8667 -72.1886 303° West 445 512 36,000  Level Miami Center
Fri 09:47:54 PM 22.9369 -72.2967 305° West 445 512 36,000  Level Miami Center
Fri 09:48:54 PM 23.0008 -72.4092 302° West 445 512 36,000  Level Miami Center
Fri 09:49:54 PM 23.0731 -72.5242 304° West 440 506 36,000  Level Miami Center
Fri 09:50:54 PM 23.1408 -72.6325 304° West 435 501 36,000  Level Miami Center
Fri 09:51:54 PM 23.2108 -72.7431 305° West 435 501 36,000  Level Miami Center
Fri 09:52:54 PM 23.2742 -72.8472 304° West 429 494 36,000  Level Miami Center
Fri 09:53:54 PM 23.3375 -72.9561 302° West 424 488 36,000  Level Miami Center
Fri 09:54:54 PM 23.4092 -73.0650 306° West 430 495 36,000  Level Miami Center
Fri 09:55:54 PM 23.4747 -73.1761 303° West 430 495 36,000  Level Miami Center
Fri 09:56:54 PM 23.5400 -73.2831 304° West 430 495 36,000  Level Miami Center
Fri 09:57:54 PM 23.6053 -73.3944 303° West 435 501 36,000  Level Miami Center
Fri 09:58:54 PM 23.6744 -73.5036 305° West 430 495 36,000  Level Miami Center
Fri 09:59:54 PM 23.7417 -73.6131 304° West 436 502 36,000  Level Miami Center
Fri 10:00:54 PM 23.8089 -73.7225 304° West 436 502 36,000  Level Miami Center
Fri 10:01:54 PM 23.8717 -73.8300 303° West 436 502 36,000  Level Miami Center
Fri 10:02:54 PM 23.9386 -73.9397 304° West 436 502 36,000  Level Miami Center
Fri 10:03:54 PM 24.0056 -74.0497 304° West 436 502 36,000  Level Miami Center
Fri 10:04:54 PM 24.0722 -74.1575 304° West 436 502 36,000  Level Miami Center
Fri 10:05:54 PM 24.1369 -74.2653 303° West 431 496 36,000  Level Miami Center
Fri 10:06:54 PM 24.2036 -74.3778 303° West 431 496 36,000  Level Miami Center
Fri 10:07:54 PM 24.2681 -74.4836 304° West 431 496 36,000  Level Miami Center
Fri 10:08:54 PM 24.3344 -74.5964 303° West 431 496 36,000  Level Miami Center
Fri 10:09:54 PM 24.3989 -74.7047 303° West 431 496 36,000  Level Miami Center
Fri 10:10:57 PM 24.4653 -74.8156 303° West 431 496 36,000  Level Miami Center
Fri 10:11:54 PM 24.5314 -74.9239 304° West 437 503 36,000  Level Miami Center
Fri 10:12:56 PM 24.5978 -75.0372 303° West 437 503 36,000  Level Miami Center
Fri 10:13:54 PM 24.6639 -75.1506 303° West 437 503 36,000  Level Miami Center
Fri 10:14:54 PM 24.7297 -75.2642 303° West 437 503 36,000  Level Miami Center
Fri 10:15:54 PM 24.7981 -75.3800 303° West 442 509 36,000  Level Miami Center
Fri 10:16:54 PM 24.8617 -75.4914 302° West 442 509 36,000  Level Miami Center
Fri 10:17:56 PM 24.9275 -75.6075 302° West 442 509 36,000  Level Miami Center
Fri 10:18:54 PM 24.9806 -75.6942 304° West 442 509 36,000  Level Miami Center
Fri 10:19:54 PM 25.0503 -75.8194 302° West 442 509 36,000  Level Miami Center
Fri 10:20:55 PM 25.1181 -75.9339 303° West 447 514 36,000  Level Miami Center
Fri 10:21:56 PM 25.1897 -76.0528 304° West 452 520 36,000  Level Miami Center
Fri 10:22:54 PM 25.2511 -76.1694 300° West 452 520 36,000  Level Miami Center
Fri 10:23:54 PM 25.3225 -76.2886 304° West 452 520 36,000  Level Miami Center
Fri 10:24:54 PM 25.3897 -76.4056 302° West 452 520 36,000  Level Miami Center
Fri 10:25:54 PM 25.4569 -76.5203 303° West 452 520 36,000  Level Miami Center
Fri 10:26:56 PM 25.5219 -76.6378 302° West 446 513 36,000  Level Miami Center
Fri 10:27:54 PM 25.5850 -76.7528 301° West 446 513 36,000  Level Miami Center
Fri 10:28:55 PM 25.6603 -76.8794 303° West 452 520 36,000  Level Miami Center
Fri 10:29:54 PM 25.7228 -76.9947 301° West 452 520 36,000  Level Miami Center
Fri 10:30:54 PM 25.7853 -77.1081 302° West 445 512 36,000  Level Miami Center
Fri 10:31:54 PM 25.8500 -77.2189 303° West 445 512 36,000  Level Miami Center
Fri 10:32:54 PM 25.9122 -77.3300 302° West 439 505 36,000  Level Miami Center
Fri 10:33:54 PM 25.9725 -77.4411 301° West 433 498 36,000  Level Miami Center
Fri 10:34:54 PM 26.0306 -77.5386 304° West 433 498 36,000  Level Miami Center
Fri 10:35:55 PM 26.0906 -77.6547 300° West 433 498 36,000  Level Miami Center
Fri 10:36:56 PM 26.1547 -77.7639 303° West 433 498 36,000  Level Miami Center
Fri 10:37:55 PM 26.2147 -77.8778 300° West 433 498 36,000  Level Miami Center
Fri 10:38:57 PM 26.2806 -77.9919 303° West 433 498 36,000  Level Miami Center
Fri 10:39:54 PM 26.3422 -78.1086 301° West 433 498 36,000  Level Miami Center
Fri 10:40:54 PM 26.4061 -78.2206 303° West 433 498 36,000  Level Miami Center
Fri 10:41:56 PM 26.4678 -78.3372 301° West 433 498 36,000  Level Miami Center
Fri 10:42:57 PM 26.5311 -78.4542 301° West 433 498 36,000  Level Miami Center
Fri 10:43:54 PM 26.5947 -78.5689 302° West 439 505 36,000  Level Miami Center
Fri 10:44:55 PM 26.6622 -78.6839 303° West 439 505 36,000  Level Miami Center
Fri 10:45:56 PM 26.7256 -78.7986 302° West 439 505 36,000  Level Miami Center
Fri 10:46:54 PM 26.7844 -78.9114 300° West 434 499 36,000  Level Miami Center
Fri 10:47:54 PM 26.8497 -79.0289 302° West 435 501 36,000  Level Miami Center
Fri 10:48:57 PM 26.9106 -79.1442 301° West 435 501 36,000  Level Miami Center
Fri 10:49:54 PM 26.9733 -79.2597 301° West 435 501 36,000  Level Miami Center
Fri 10:50:56 PM 27.0322 -79.3706 301° West 429 494 36,000  Level Miami Center
Fri 10:51:56 PM 27.0928 -79.4839 301° West 429 494 36,000 -51 Level Miami Center
Fri 10:52:54 PM 27.1594 -79.6092 301° West 429 494 35,900 -1,068 Descending Miami Center
Fri 10:53:54 PM 27.2219 -79.7250 301° West 429 494 33,900 -1,700 Descending Miami Center
Fri 10:54:54 PM 27.2822 -79.8386 301° West 429 494 32,500 -1,140 Descending Miami Center
Fri 10:55:55 PM 27.3464 -79.9642 300° West 440 506 31,600 -950 Descending Miami Center
Fri 10:56:54 PM 27.4086 -80.0853 300° West 445 512 30,600 -1,008 Descending Miami Center
Fri 10:57:54 PM 27.4725 -80.2064 301° West 450 518 29,600 -1,050 Descending Miami Center
Fri 10:58:54 PM 27.5364 -80.3278 301° West 450 518 28,500 -1,800 Descending Miami Center
Fri 10:59:54 PM 27.5964 -80.4419 301° West 445 512 26,000 -2,529 Descending Miami Center
Fri 11:00:55 PM 27.6542 -80.5539 300° West 435 501 23,400 -2,508 Descending Miami Center
Fri 11:01:56 PM 27.7139 -80.6661 301° West 424 488 20,900 -2,380 Descending Miami Center
Fri 11:02:56 PM 27.7694 -80.7714 301° West 409 471 18,600 -2,339 Descending Miami Center
Fri 11:04:53 PM 27.8667 -80.9667 299° West 364 419 14,000 -2,262 Descending Orlando TRACON
Fri 11:05:59 PM 27.9333 -81.0833 303° West 351 404 11,700 -1,429 Descending Orlando TRACON
Fri 11:06:59 PM 28.0167 -81.1333 332° Northwest 343 395 11,000 -350 Descending Orlando TRACON
Fri 11:07:59 PM 28.1000 -81.1500 350° North 341 392 11,000 -100 Level Orlando TRACON
Fri 11:08:59 PM 28.2000 -81.1667 352° North 341 392 10,800 -614 Descending Orlando TRACON
Fri 11:10:06 PM 28.3000 -81.1667 360° North 305 351 9,700 -1,323 Descending Orlando TRACON
Fri 11:11:06 PM 28.3667 -81.1833 348° North 281 323 8,000 -2,300 Descending Orlando TRACON
Fri 11:12:06 PM 28.4500 -81.1833 360° North 266 306 5,100 -2,750 Descending Orlando TRACON
Fri 11:13:06 PM 28.5167 -81.2000 348° North 241 277 2,500 -1,800 Descending Orlando TRACON
Fri 11:14:06 PM 28.5333 -81.2500 291° West 169 194 1,500 -550 Descending Orlando TRACON
Fri 11:15:06 PM 28.5000 -81.2833 221° Southwest 142 163 1,400 -500 Descending Orlando TRACON
Fri 11:16:06 PM 28.4500 -81.3000 196° South 163 188 500 -900 Descending Orlando TRACON
Fri 11:18:00 PM 28.4294 -81.3090 199° South  Level Estimated

Login

Don't have an account? Register now (free) for customized features, flight alerts, and more!